Time;durP1;ratioP1;P1;durP2;ratioP2;P2;SDS_P1;SDS_P2;PMS_P1;PMS_P2;Temp;Humidity;BMP_temperature;BMP_pressure;BME280_temperature;BME280_humidity;BME280_pressure;Samples;Min_cycle;Max_cycle;Signal;HPM_P1;HPM_P2
2021/12/14 00:01:48;;;;;;;1.73;1.40;;;;;;;5.00;100.00;99937.31;5092736;28;20028;-72
2021/12/14 00:04:19;;;;;;;1.40;1.30;;;;;;;4.87;100.00;99937.03;5092784;28;20035;-72
2021/12/14 00:06:46;;;;;;;2.22;2.13;;;;;;;4.98;100.00;99928.69;5079737;28;20012;-72
2021/12/14 00:09:24;;;;;;;1.20;1.15;;;;;;;4.90;100.00;99926.84;5084029;28;20153;-73
2021/12/14 00:12:42;;;;;;;1.45;1.35;;;;;;;5.14;100.00;99925.66;5092267;28;20031;-72
2021/12/14 00:17:07;;;;;;;2.42;1.77;;;;;;;5.01;100.00;99928.78;5092492;28;20106;-72
2021/12/14 00:19:33;;;;;;;3.35;2.30;;;;;;;4.96;100.00;99930.38;5092366;28;20024;-72
2021/12/14 00:22:05;;;;;;;1.65;1.55;;;;;;;5.10;100.00;99928.97;5092509;28;20028;-72
2021/12/14 00:24:31;;;;;;;0.98;0.98;;;;;;;5.10;100.00;99923.84;5092677;28;20024;-72
2021/12/14 00:27:05;;;;;;;0.77;0.77;;;;;;;4.95;100.00;99929.50;5092424;28;20028;-72
2021/12/14 00:29:35;;;;;;;1.77;1.67;;;;;;;4.95;100.00;99933.78;5092377;28;20110;-72
2021/12/14 00:32:02;;;;;;;;;;;;;;;4.82;100.00;99937.75;5092793;28;20023;-72
2021/12/14 00:34:41;;;;;;;1.02;1.02;;;;;;;4.76;100.00;99927.34;5092342;28;20392;-72
2021/12/14 00:37:09;;;;;;;1.40;1.30;;;;;;;4.80;100.00;99924.88;5079238;28;20027;-72
2021/12/14 00:39:35;;;;;;;1.55;1.45;;;;;;;4.79;100.00;99923.16;5083767;28;20028;-72
2021/12/14 00:42:01;;;;;;;1.63;1.52;;;;;;;4.82;100.00;99920.63;5092142;28;20027;-72
2021/12/14 00:44:26;;;;;;;1.80;1.70;;;;;;;4.77;100.00;99929.94;5092222;28;20473;-72
2021/12/14 00:46:52;;;;;;;1.95;1.75;;;;;;;4.78;100.00;99921.38;5091793;28;20508;-72
2021/12/14 00:49:18;;;;;;;1.88;1.52;;;;;;;4.87;100.00;99926.75;5092035;28;20016;-72
2021/12/14 00:51:44;;;;;;;0.70;0.70;;;;;;;4.81;100.00;99924.03;5092307;28;20168;-72
2021/12/14 00:54:13;;;;;;;1.13;1.10;;;;;;;4.80;100.00;99930.00;5092098;28;20485;-72
2021/12/14 00:56:40;;;;;;;1.17;1.10;;;;;;;4.95;100.00;99928.63;5091792;28;20031;-72
2021/12/14 00:59:08;;;;;;;2.00;1.90;;;;;;;4.93;100.00;99936.28;5091962;28;20028;-72
2021/12/14 05:15:46;;;;;;;2.03;1.92;;;;;;;4.34;100.00;99887.81;5810058;23;20055;-71
2021/12/14 05:18:14;;;;;;;1.25;1.15;;;;;;;4.16;100.00;99887.38;4953972;28;20389;-72
2021/12/14 05:20:42;;;;;;;2.25;2.05;;;;;;;4.15;100.00;99889.88;4953714;28;20035;-72
2021/12/14 05:23:07;;;;;;;2.63;2.13;;;;;;;4.08;100.00;99894.00;4953740;28;20395;-71
2021/12/14 05:25:33;;;;;;;3.70;1.35;;;;;;;4.18;100.00;99900.25;4953601;28;20043;-71
2021/12/14 05:28:01;;;;;;;3.13;1.10;;;;;;;4.31;100.00;99903.16;4953677;28;20031;-71
2021/12/14 05:30:40;;;;;;;2.55;1.67;;;;;;;4.28;100.00;99923.59;4954468;28;20030;-71
2021/12/14 05:33:31;;;;;;;2.05;1.95;;;;;;;4.22;100.00;99922.56;4953696;28;20038;-71
2021/12/14 05:36:01;;;;;;;1.50;1.45;;;;;;;4.13;100.00;99923.19;4953390;28;20106;-71
2021/12/14 05:39:24;;;;;;;1.67;1.67;;;;;;;4.17;100.00;99925.03;4953453;28;20086;-71
2021/12/14 05:44:04;;;;;;;4.22;2.13;;;;;;;4.20;100.00;99913.97;4915749;29;20172;-71
2021/12/14 05:46:30;;;;;;;3.63;2.07;;;;;;;4.16;100.00;99912.13;4915307;29;20390;-72
2021/12/14 05:48:58;;;;;;;2.28;2.08;;;;;;;4.21;100.00;99906.31;4915440;29;20024;-72
2021/12/14 05:51:23;;;;;;;1.17;1.17;;;;;;;4.15;100.00;99911.28;4915571;29;20156;-73
2021/12/14 05:53:49;;;;;;;2.40;2.20;;;;;;;4.12;100.00;99906.09;4915466;29;20095;-73
2021/12/14 05:56:19;;;;;;;1.80;1.73;;;;;;;4.46;100.00;99897.53;4914471;29;20027;-73
2021/12/14 05:58:47;;;;;;;1.27;1.05;;;;;;;4.47;100.00;99894.13;4913876;29;20474;-72
2021/12/14 06:01:16;;;;;;;1.85;1.75;;;;;;;4.65;100.00;99904.00;4915117;29;20118;-72
2021/12/14 06:03:46;;;;;;;1.80;1.53;;;;;;;4.57;100.00;99902.94;4915303;29;20060;-73
2021/12/14 06:06:28;;;;;;;0.77;0.77;;;;;;;4.32;100.00;99904.03;4920382;29;20346;-72
2021/12/14 06:09:28;;;;;;;2.30;1.50;;;;;;;4.51;100.00;99895.94;4926446;29;20102;-72
2021/12/14 06:12:10;;;;;;;0.98;0.98;;;;;;;4.53;100.00;99913.94;4937951;29;20047;-72
2021/12/14 06:14:42;;;;;;;1.08;1.08;;;;;;;4.38;100.00;99919.56;4937627;29;20023;-72
2021/12/14 06:17:07;;;;;;;0.85;0.85;;;;;;;4.27;100.00;99900.47;4937184;29;20122;-72
2021/12/14 06:19:37;;;;;;;1.70;1.60;;;;;;;4.09;100.00;99900.88;4937500;29;20031;-72
2021/12/14 06:22:13;;;;;;;1.63;1.63;;;;;;;4.06;100.00;99903.34;4937506;29;20103;-72
2021/12/14 06:24:45;;;;;;;2.53;2.08;;;;;;;4.01;100.00;99900.69;4937369;29;20519;-72
2021/12/14 06:27:17;;;;;;;1.42;1.33;;;;;;;4.10;100.00;99902.59;4937243;29;20035;-72
2021/12/14 06:29:47;;;;;;;1.98;1.58;;;;;;;3.95;100.00;99897.94;4937372;29;20063;-72
2021/12/14 06:32:19;;;;;;;1.63;1.45;;;;;;;3.98;100.00;99909.97;4937281;29;20103;-72
2021/12/14 06:34:52;;;;;;;3.72;1.77;;;;;;;3.90;100.00;99914.03;4937245;29;20528;-72
2021/12/14 06:37:26;;;;;;;0.95;0.95;;;;;;;3.89;100.00;99922.56;4936891;29;20027;-72
2021/12/14 06:40:06;;;;;;;2.67;1.70;;;;;;;3.98;100.00;99907.41;4936991;29;20066;-72
2021/12/14 06:42:33;;;;;;;1.58;1.42;;;;;;;3.99;100.00;99909.16;4937068;29;20512;-72
2021/12/14 06:45:05;;;;;;;3.03;2.33;;;;;;;3.94;100.00;99903.03;4937069;29;20401;-72
2021/12/14 06:47:31;;;;;;;0.73;0.73;;;;;;;3.94;100.00;99896.19;4936863;29;20038;-72
2021/12/14 06:50:01;;;;;;;1.55;1.45;;;;;;;3.88;100.00;99890.91;4936989;29;20508;-72
2021/12/14 06:52:27;;;;;;;2.08;1.88;;;;;;;3.71;100.00;99898.13;4936993;29;20024;-72
2021/12/14 06:54:52;;;;;;;1.50;1.40;;;;;;;3.82;100.00;99901.88;4936875;29;20036;-72
2021/12/14 06:57:19;;;;;;;0.88;0.88;;;;;;;3.73;100.00;99895.63;4936579;29;20035;-73
2021/12/14 06:59:47;;;;;;;1.50;0.85;;;;;;;3.67;100.00;99895.44;4936948;29;20027;-73
2021/12/14 07:02:13;;;;;;;0.40;0.40;;;;;;;3.79;100.00;99900.94;4936646;29;20023;-73
2021/12/14 07:04:47;;;;;;;0.85;0.85;;;;;;;3.77;100.00;99880.38;4936706;29;20059;-73
2021/12/14 07:07:15;;;;;;;0.82;0.82;;;;;;;3.77;100.00;99870.13;4936349;29;20027;-73
2021/12/14 07:09:51;;;;;;;2.45;2.25;;;;;;;3.65;100.00;99877.47;4936409;29;20038;-73
2021/12/14 07:12:23;;;;;;;1.23;1.23;;;;;;;3.61;100.00;99865.41;4936606;29;20024;-73
2021/12/14 07:14:48;;;;;;;1.17;1.17;;;;;;;3.54;100.00;99868.63;4936640;29;20066;-72
2021/12/14 07:17:19;;;;;;;1.45;1.13;;;;;;;3.70;100.00;99863.09;4936106;29;20051;-72
2021/12/14 07:19:44;;;;;;;1.63;1.52;;;;;;;3.56;100.00;99872.09;4936509;29;20035;-72
2021/12/14 07:22:32;;;;;;;1.20;1.02;;;;;;;3.61;100.00;99860.28;4936186;29;20091;-72
2021/12/14 07:25:03;;;;;;;1.33;1.08;;;;;;;3.47;100.00;99856.47;4936239;29;20039;-72
2021/12/14 07:27:31;;;;;;;1.40;1.40;;;;;;;3.37;100.00;99864.72;4936048;29;20606;-72
2021/12/14 07:30:27;;;;;;;1.33;1.27;;;;;;;3.50;100.00;99861.69;4936676;29;20034;-72
2021/12/14 07:33:00;;;;;;;2.45;0.85;;;;;;;3.35;100.00;99857.88;4936183;29;20030;-69
2021/12/14 07:35:41;;;;;;;1.40;1.27;;;;;;;3.51;100.00;99859.16;4936097;29;20099;-69
2021/12/14 07:38:43;;;;;;;0.90;0.90;;;;;;;3.50;100.00;99857.44;4929954;29;20082;-69
2021/12/14 07:41:32;;;;;;;2.17;1.73;;;;;;;3.41;100.00;99856.31;4936237;29;20031;-69
2021/12/14 07:44:25;;;;;;;1.40;1.38;;;;;;;3.40;100.00;99870.81;4935959;29;20032;-69
2021/12/14 07:47:15;;;;;;;1.17;1.08;;;;;;;3.45;100.00;99894.00;4934191;29;20066;-69
2021/12/14 07:49:53;;;;;;;1.73;1.67;;;;;;;3.44;100.00;99907.63;4935965;29;20083;-69
2021/12/14 07:52:22;;;;;;;1.60;1.50;;;;;;;3.66;100.00;99904.84;4935923;29;20078;-69
2021/12/14 07:54:55;;;;;;;2.30;2.20;;;;;;;3.75;100.00;99907.66;4935924;29;20062;-69
2021/12/14 07:57:28;;;;;;;1.15;1.15;;;;;;;3.90;100.00;99904.63;4935394;29;20106;-68
2021/12/14 07:59:55;;;;;;;1.95;1.63;;;;;;;3.89;100.00;99891.78;4935762;29;20520;-69
2021/12/14 08:02:27;;;;;;;1.00;1.00;;;;;;;4.10;98.49;99880.38;4935533;29;20465;-73
2021/12/14 08:04:57;;;;;;;1.17;1.15;;;;;;;3.95;98.54;99882.53;4935682;29;20401;-68
2021/12/14 08:07:22;;;;;;;;;;;;;;;3.97;98.16;99885.19;4935794;29;20031;-69
2021/12/14 08:09:49;;;;;;;0.90;0.90;;;;;;;4.03;98.60;99903.28;4935412;29;19911;-68
2021/12/14 08:12:34;;;;;;;0.82;0.82;;;;;;;3.85;97.92;99891.69;4935418;29;20270;-69
2021/12/14 08:15:06;;;;;;;1.60;1.45;;;;;;;3.93;97.80;99903.88;4935437;29;20032;-69
2021/12/14 08:17:31;;;;;;;1.20;1.20;;;;;;;3.93;97.65;99894.47;4935086;29;20126;-72
2021/12/14 08:19:57;;;;;;;1.08;1.08;;;;;;;4.04;97.87;99899.88;4935392;29;20114;-68
2021/12/14 08:22:32;;;;;;;1.77;1.33;;;;;;;4.12;97.17;99896.69;4935218;29;20026;-72
2021/12/14 08:24:57;;;;;;;1.10;1.00;;;;;;;4.28;97.27;99915.91;4935263;29;20445;-72
2021/12/14 08:27:25;;;;;;;0.75;0.75;;;;;;;4.35;95.71;99910.09;4935010;29;20023;-72
2021/12/14 08:29:57;;;;;;;2.05;1.88;;;;;;;4.24;95.83;99914.06;4935187;29;20110;-73
2021/12/14 08:32:28;;;;;;;1.20;1.10;;;;;;;4.42;96.09;99920.50;4934751;29;20031;-72
2021/12/14 08:34:56;;;;;;;0.63;0.60;;;;;;;4.36;94.68;99927.22;4935074;29;20118;-73
2021/12/14 08:37:33;;;;;;;2.25;1.10;;;;;;;4.29;94.58;99925.31;4934653;29;20028;-73
2021/12/14 08:40:05;;;;;;;1.08;1.08;;;;;;;4.41;93.72;99924.78;4927848;29;20090;-73
2021/12/14 08:42:49;;;;;;;2.33;1.48;;;;;;;4.78;94.47;99921.38;4934957;29;20023;-73
2021/12/14 08:45:26;;;;;;;0.85;0.85;;;;;;;4.86;92.05;99919.88;4934913;29;20520;-73
2021/12/14 08:48:11;;;;;;;1.45;1.35;;;;;;;4.87;91.63;99923.31;4935076;29;20028;-73
2021/12/14 08:50:43;;;;;;;1.70;1.60;;;;;;;4.80;92.58;99935.16;4935169;29;20051;-68
2021/12/14 08:53:11;;;;;;;0.75;0.75;;;;;;;5.09;91.88;99927.25;4934878;29;20095;-73
2021/12/14 08:55:38;;;;;;;0.98;0.98;;;;;;;5.14;91.32;99925.66;4934741;29;20023;-72
2021/12/14 08:58:05;;;;;;;3.85;1.42;;;;;;;5.17;89.58;99930.84;4934725;29;20031;-73
2021/12/14 09:00:45;;;;;;;1.13;1.13;;;;;;;5.13;89.82;99931.63;4934840;29;20055;-72
2021/12/14 09:03:15;;;;;;;2.58;1.10;;;;;;;5.24;89.75;99922.44;4934845;29;20060;-69
2021/12/14 09:05:46;;;;;;;2.70;2.50;;;;;;;5.37;88.94;99929.59;4934861;29;20469;-70
2021/12/14 09:08:12;;;;;;;1.08;1.08;;;;;;;5.54;87.97;99921.38;4934720;29;20404;-69
2021/12/14 09:10:39;;;;;;;0.50;0.50;;;;;;;5.36;87.80;99920.13;4934471;29;20028;-69
2021/12/14 09:13:10;;;;;;;1.17;1.08;;;;;;;5.44;87.82;99919.44;4934959;29;20054;-69
2021/12/14 09:15:48;;;;;;;1.00;1.00;;;;;;;5.61;87.29;99918.09;4933270;29;20024;-72
2021/12/14 09:18:16;;;;;;;1.38;1.27;;;;;;;6.16;84.13;99903.75;4934767;29;20032;-72
2021/12/14 09:20:53;;;;;;;0.85;0.82;;;;;;;6.66;81.41;99908.88;4934509;29;20039;-69
2021/12/14 09:23:28;;;;;;;1.55;1.45;;;;;;;6.66;81.17;99902.00;4934671;29;20072;-69
2021/12/14 09:25:55;;;;;;;2.20;1.15;;;;;;;6.54;81.75;99911.25;4934296;29;20069;-72
2021/12/14 09:28:21;;;;;;;0.85;0.85;;;;;;;7.78;78.65;99903.53;4934602;29;20024;-69
2021/12/14 09:30:55;;;;;;;0.80;0.80;;;;;;;8.13;73.98;99898.75;4934607;29;20397;-69
2021/12/14 09:33:21;;;;;;;1.02;0.95;;;;;;;8.12;75.86;99911.63;4934477;29;20058;-69
2021/12/14 09:35:48;;;;;;;1.67;1.20;;;;;;;8.01;74.29;99913.25;4934181;29;20055;-72
2021/12/14 09:38:18;;;;;;;2.20;2.08;;;;;;;7.87;74.19;99929.44;4934484;29;20032;-69
2021/12/14 09:40:51;;;;;;;1.67;1.58;;;;;;;8.53;72.14;99926.69;4934557;29;20023;-69
2021/12/14 09:43:17;;;;;;;2.55;1.15;;;;;;;9.33;70.33;99921.25;4934403;29;20465;-73
2021/12/14 09:45:47;;;;;;;3.03;2.50;;;;;;;10.12;66.50;99920.69;4937072;29;20039;-73
2021/12/14 09:48:18;;;;;;;1.42;1.33;;;;;;;11.10;63.94;99910.34;4938003;29;20032;-69
2021/12/14 09:50:46;;;;;;;1.52;1.42;;;;;;;11.12;62.20;99911.22;4938033;29;20110;-73
2021/12/14 09:53:18;;;;;;;3.60;1.30;;;;;;;9.93;64.32;99914.59;4938021;29;20030;-69
2021/12/14 09:55:46;;;;;;;2.42;1.40;;;;;;;9.74;67.04;99915.38;4937821;29;20023;-73
2021/12/14 09:58:16;;;;;;;1.95;1.75;;;;;;;9.29;68.10;99911.75;4937878;29;20036;-69
2021/12/14 10:01:05;;;;;;;0.88;0.80;;;;;;;8.49;71.04;99916.31;4937953;29;20516;-73
2021/12/14 10:03:31;;;;;;;1.00;1.00;;;;;;;7.88;74.51;99907.06;4932206;29;20071;-68
2021/12/14 10:06:00;;;;;;;1.75;1.58;;;;;;;7.38;76.45;99904.75;4937648;29;20306;-69
2021/12/14 10:08:35;;;;;;;3.25;1.70;;;;;;;7.61;76.82;99907.63;4937627;29;20102;-72
2021/12/14 10:11:04;;;;;;;4.13;2.17;;;;;;;7.95;76.02;99906.31;4918695;29;20462;-69
2021/12/14 10:13:32;;;;;;;1.58;1.48;;;;;;;7.82;75.37;99901.84;4918636;29;20021;-72
2021/12/14 10:15:59;;;;;;;1.98;1.38;;;;;;;7.48;75.83;99906.59;4918467;29;20115;-69
2021/12/14 10:18:31;;;;;;;1.40;1.30;;;;;;;7.56;76.06;99899.84;4918544;29;20028;-69
2021/12/14 10:21:01;;;;;;;1.88;1.70;;;;;;;7.23;78.44;99913.16;4918622;29;20032;-69
2021/12/14 10:23:29;;;;;;;1.50;1.45;;;;;;;7.29;77.14;99915.81;4918333;29;20397;-69
2021/12/14 10:25:55;;;;;;;2.25;1.98;;;;;;;7.09;78.35;99918.09;4918541;29;20032;-69
2021/12/14 10:28:23;;;;;;;2.75;1.08;;;;;;;6.97;78.79;99917.09;4917347;29;20024;-73
2021/12/14 10:31:11;;;;;;;1.45;1.20;;;;;;;6.98;79.38;99908.50;4917169;29;20409;-72
2021/12/14 10:33:39;;;;;;;1.65;1.55;;;;;;;6.63;80.68;99911.41;4918305;29;20028;-73
2021/12/14 10:36:23;;;;;;;1.33;1.23;;;;;;;6.29;81.79;99908.28;4922401;29;20030;-69
2021/12/14 10:39:22;;;;;;;3.20;1.58;;;;;;;6.54;82.42;99906.09;4937139;29;20020;-69
2021/12/14 10:44:40;;;;;;;1.50;1.48;;;;;;;7.02;81.54;99912.88;4937349;29;20095;-73
2021/12/14 10:47:09;;;;;;;1.83;1.73;;;;;;;7.29;80.66;99910.66;4936986;29;20019;-72
2021/12/14 10:49:35;;;;;;;5.90;2.15;;;;;;;7.14;80.45;99907.88;4937169;29;20086;-73
2021/12/14 10:52:10;;;;;;;2.00;1.70;;;;;;;7.67;77.89;99897.38;4937043;29;20023;-72
2021/12/14 10:54:36;;;;;;;1.15;1.15;;;;;;;7.63;78.00;99900.75;4936884;29;20037;-73
2021/12/14 10:57:08;;;;;;;1.63;1.25;;;;;;;8.13;76.16;99908.22;4936266;29;20411;-73
2021/12/14 10:59:37;;;;;;;1.73;1.63;;;;;;;8.23;75.98;99905.72;4936755;29;20028;-73
2021/12/14 11:02:04;;;;;;;1.27;1.17;;;;;;;8.07;75.27;99902.97;4936778;29;20522;-69
2021/12/14 11:04:54;;;;;;;1.67;1.00;;;;;;;8.06;77.43;99902.09;4936652;29;20048;-73
2021/12/14 11:07:27;;;;;;;1.88;1.38;;;;;;;8.34;76.19;99902.38;4936297;29;20095;-69
2021/12/14 11:09:53;;;;;;;1.50;1.40;;;;;;;8.23;75.23;99910.03;4928791;29;20031;-73
2021/12/14 11:12:26;;;;;;;2.13;1.67;;;;;;;8.14;75.71;99915.97;4936641;29;20019;-73
2021/12/14 11:15:00;;;;;;;0.85;0.85;;;;;;;8.46;75.07;99918.91;4936555;29;20032;-69
2021/12/14 11:20:20;;;;;;;2.38;1.83;;;;;;;10.22;68.14;99903.44;4936670;29;20038;-69
2021/12/14 11:22:52;;;;;;;1.92;1.58;;;;;;;10.14;68.44;99907.72;4936295;29;20090;-69
2021/12/14 11:25:21;;;;;;;0.93;0.93;;;;;;;10.24;66.46;99904.31;4936225;29;20032;-69
2021/12/14 11:27:49;;;;;;;;;;;;;;;9.72;68.76;99909.34;4936390;29;20023;-73
2021/12/14 11:30:21;;;;;;;1.95;1.73;;;;;;;9.13;72.23;99907.31;4936644;29;20390;-73
2021/12/14 11:33:10;;;;;;;1.70;1.60;;;;;;;9.35;71.16;99898.81;4936047;29;20442;-70
2021/12/14 11:35:43;;;;;;;1.48;1.42;;;;;;;9.64;70.37;99905.84;4929785;29;20070;-72
2021/12/14 11:38:26;;;;;;;1.33;1.23;;;;;;;9.08;71.70;99899.53;4935851;29;20053;-73
2021/12/14 11:40:52;;;;;;;1.17;1.08;;;;;;;8.59;73.27;99908.66;4936173;29;20028;-73
2021/12/14 11:43:24;;;;;;;1.60;1.50;;;;;;;8.17;76.08;99909.94;4935892;29;20035;-73
2021/12/14 11:45:50;;;;;;;4.95;1.52;;;;;;;8.94;74.60;99904.59;4935847;29;20032;-68
2021/12/14 11:48:27;;;;;;;3.50;2.03;;;;;;;8.34;75.35;99905.84;4935778;29;20493;-73
2021/12/14 11:50:53;;;;;;;1.42;1.33;;;;;;;8.27;76.48;99896.31;4935752;29;20374;-69
2021/12/14 11:53:21;;;;;;;1.17;0.88;;;;;;;8.03;77.76;99898.66;4935779;29;20034;-69
2021/12/14 11:55:58;;;;;;;2.47;2.28;;;;;;;7.68;79.85;99892.22;4935635;29;20071;-69
2021/12/14 11:58:26;;;;;;;2.92;1.30;;;;;;;8.24;77.25;99875.63;4935666;29;20028;-73
2021/12/14 12:01:10;;;;;;;1.67;1.60;;;;;;;8.49;75.91;99872.41;4935648;29;20045;-69
2021/12/14 12:03:47;;;;;;;1.85;1.75;;;;;;;8.16;77.15;99866.94;4935354;29;20094;-72
2021/12/14 12:09:33;;;;;;;1.13;1.07;;;;;;;8.54;76.94;99859.53;4928570;29;20553;-69
2021/12/14 12:12:04;;;;;;;7.45;1.88;;;;;;;9.35;73.45;99848.81;4935470;29;20047;-68
2021/12/14 12:14:33;;;;;;;0.95;0.95;;;;;;;9.96;70.57;99847.28;4935504;29;20034;-73
2021/12/14 12:17:32;;;;;;;5.07;1.73;;;;;;;9.05;73.34;99857.31;4935023;29;20030;-73
2021/12/14 12:20:22;;;;;;;1.35;1.13;;;;;;;8.44;76.40;99868.94;4935221;29;20038;-69
2021/12/14 12:23:04;;;;;;;1.35;1.25;;;;;;;8.30;76.77;99867.06;4935337;29;20414;-73
2021/12/14 12:25:41;;;;;;;1.45;1.35;;;;;;;8.15;77.50;99870.38;4935105;29;20023;-73
2021/12/14 12:28:15;;;;;;;2.13;1.20;;;;;;;9.19;74.24;99871.19;4935129;29;20024;-73
2021/12/14 12:30:53;;;;;;;1.80;1.65;;;;;;;9.09;72.65;99874.53;4934956;29;20031;-73
2021/12/14 12:33:32;;;;;;;1.25;1.13;;;;;;;8.87;74.38;99873.56;4861678;29;20045;-73
2021/12/14 12:36:09;;;;;;;1.40;1.30;;;;;;;9.25;72.79;99866.03;4785260;28;20040;-73
2021/12/14 12:38:44;;;;;;;1.00;1.00;;;;;;;8.91;73.64;99865.84;4870576;28;20545;-73
2021/12/14 12:41:26;;;;;;;1.17;1.02;;;;;;;8.39;74.56;99868.03;4914606;29;20028;-69
2021/12/14 12:44:00;;;;;;;3.28;2.00;;;;;;;8.44;77.11;99879.25;4869157;28;20087;-69
2021/12/14 12:46:38;;;;;;;1.95;1.75;;;;;;;8.53;75.97;99875.03;4915726;29;20039;-69
2021/12/14 12:49:13;;;;;;;3.70;1.38;;;;;;;8.07;77.21;99877.16;4915835;29;20087;-71
2021/12/14 12:51:56;;;;;;;1.45;1.17;;;;;;;7.85;78.31;99882.13;4916167;29;20154;-71
2021/12/14 12:54:44;;;;;;;1.65;1.35;;;;;;;7.80;80.03;99883.78;4914654;29;20043;-69
2021/12/14 12:57:36;;;;;;;2.38;1.42;;;;;;;7.78;79.69;99876.84;4915738;29;20409;-72
2021/12/14 13:00:07;;;;;;;4.20;2.20;;;;;;;7.94;80.34;99877.06;4915775;29;20429;-69
2021/12/14 13:02:47;;;;;;;1.60;1.38;;;;;;;7.99;79.83;99869.34;4915733;29;20504;-69
2021/12/14 13:05:43;;;;;;;2.15;1.73;;;;;;;7.70;81.08;99872.50;4915684;29;20040;-73
2021/12/14 13:08:26;;;;;;;1.10;1.00;;;;;;;7.61;81.79;99874.09;4909671;29;20426;-73
2021/12/14 13:10:59;;;;;;;2.40;1.77;;;;;;;7.44;83.11;99876.47;4915709;29;20040;-69
2021/12/14 13:13:32;;;;;;;2.05;1.85;;;;;;;7.62;83.65;99862.94;4915663;29;20035;-73
2021/12/14 13:16:03;;;;;;;0.90;0.90;;;;;;;7.56;83.49;99862.88;4915507;29;20028;-69
2021/12/14 13:18:49;;;;;;;3.58;2.35;;;;;;;7.56;83.38;99870.59;4916585;29;20369;-70
2021/12/14 13:21:41;;;;;;;1.77;1.67;;;;;;;7.60;83.56;99874.97;4919515;29;20390;-70
2021/12/14 13:24:12;;;;;;;2.95;2.38;;;;;;;7.64;83.58;99882.75;4919433;29;20031;-73
2021/12/14 13:26:53;;;;;;;1.27;1.23;;;;;;;7.48;84.34;99886.84;4919060;29;20508;-73
2021/12/14 13:29:27;;;;;;;2.92;2.33;;;;;;;7.45;84.74;99881.66;4919678;29;20042;-69
2021/12/14 13:32:04;;;;;;;3.15;2.20;;;;;;;7.12;86.00;99891.53;4919335;29;20059;-70
2021/12/14 13:34:41;;;;;;;1.58;1.48;;;;;;;7.07;86.68;99888.03;4919361;29;20028;-73
2021/12/14 13:37:08;;;;;;;1.27;1.25;;;;;;;6.84;87.31;99885.97;4918702;29;20024;-74
2021/12/14 13:39:36;;;;;;;2.72;2.05;;;;;;;7.08;86.92;99885.47;4919096;29;20032;-74
2021/12/14 13:42:05;;;;;;;1.92;1.83;;;;;;;6.86;87.16;99884.28;4919031;29;20155;-69
2021/12/14 13:44:38;;;;;;;1.25;1.15;;;;;;;6.81;87.83;99885.91;4919271;29;20034;-73
2021/12/14 13:47:08;;;;;;;2.00;1.90;;;;;;;6.70;88.82;99882.31;4918807;29;20078;-73
2021/12/14 13:49:36;;;;;;;2.03;1.88;;;;;;;6.57;89.32;99890.69;4919069;29;20028;-70
2021/12/14 13:52:04;;;;;;;1.67;1.08;;;;;;;6.61;89.57;99882.19;4918920;29;20044;-70
2021/12/14 13:54:29;;;;;;;1.42;1.33;;;;;;;6.51;89.90;99880.31;4919036;29;20043;-73
2021/12/14 13:56:55;;;;;;;2.15;1.95;;;;;;;6.58;90.95;99882.16;4918606;29;20028;-73
2021/12/14 13:59:21;;;;;;;2.15;1.55;;;;;;;6.71;89.73;99871.16;4918885;29;20313;-74
2021/12/14 14:01:51;;;;;;;6.68;1.77;;;;;;;6.63;90.13;99883.09;4918746;29;20028;-74
2021/12/14 14:04:19;;;;;;;;;;;;;;;6.66;89.49;99875.38;4918828;29;20626;-73
2021/12/14 14:06:45;;;;;;;1.70;1.35;;;;;;;6.63;89.55;99891.66;4918255;29;19911;-73
2021/12/14 14:09:23;;;;;;;3.58;3.28;;;;;;;6.73;89.96;99887.53;4918328;29;20035;-73
2021/12/14 14:11:49;;;;;;;1.15;1.15;;;;;;;6.82;88.79;99887.69;4918604;29;20035;-73
2021/12/14 14:14:15;;;;;;;1.63;1.52;;;;;;;6.70;89.54;99892.63;4918351;29;20482;-70
2021/12/14 14:16:49;;;;;;;1.60;1.50;;;;;;;6.80;89.74;99884.19;4918185;29;20039;-69
2021/12/14 14:19:18;;;;;;;1.80;1.70;;;;;;;6.75;89.13;99884.97;4918513;29;20028;-69
2021/12/14 14:21:57;;;;;;;2.50;2.10;;;;;;;6.64;89.19;99892.53;4918474;29;20032;-69
2021/12/14 14:24:30;;;;;;;1.38;1.38;;;;;;;6.56;90.10;99894.09;4918335;29;20074;-74
2021/12/14 14:26:57;;;;;;;4.03;1.92;;;;;;;6.47;90.68;99888.81;4918109;29;20027;-73
2021/12/14 14:29:24;;;;;;;2.05;1.80;;;;;;;6.52;91.25;99892.31;4918100;29;20031;-74
2021/12/14 14:32:26;;;;;;;6.40;1.90;;;;;;;6.49;90.65;99893.16;4918024;29;20028;-73
2021/12/14 14:34:54;;;;;;;2.30;2.20;;;;;;;6.35;91.18;99884.34;4918187;29;20028;-69
2021/12/14 14:37:36;;;;;;;1.38;1.30;;;;;;;6.44;92.09;99890.50;4917868;29;20043;-70
2021/12/14 14:40:11;;;;;;;4.32;2.38;;;;;;;6.41;91.55;99898.16;4899219;29;20076;-69
2021/12/14 14:42:48;;;;;;;1.98;1.33;;;;;;;6.37;92.77;99898.94;4899388;29;20025;-69
2021/12/14 14:45:18;;;;;;;2.13;2.03;;;;;;;6.56;90.97;99910.41;4899086;29;20398;-73
2021/12/14 14:47:44;;;;;;;2.45;2.30;;;;;;;6.31;92.18;99918.59;4899161;29;20035;-69
2021/12/14 14:50:32;;;;;;;5.68;3.97;;;;;;;6.34;93.42;99914.38;4898995;29;20025;-73
2021/12/14 14:53:18;;;;;;;2.45;2.25;;;;;;;6.31;93.23;99914.28;4929657;29;20020;-72
2021/12/14 14:55:47;;;;;;;2.25;2.10;;;;;;;6.26;92.59;99926.22;4898904;29;20029;-69
2021/12/14 14:58:27;;;;;;;2.42;2.10;;;;;;;6.17;93.68;99932.06;4899025;29;20498;-73
2021/12/14 15:01:10;;;;;;;2.83;2.55;;;;;;;6.13;94.81;99939.69;4899049;29;20120;-73
2021/12/14 15:03:35;;;;;;;1.38;1.33;;;;;;;6.27;93.49;99947.66;4899349;29;20020;-73
2021/12/14 15:06:12;;;;;;;3.30;2.30;;;;;;;6.17;94.46;99946.63;4911882;29;20028;-73
2021/12/14 15:08:48;;;;;;;6.97;4.00;;;;;;;6.10;94.13;99944.81;4917533;29;20032;-73
2021/12/14 15:11:27;;;;;;;2.20;1.98;;;;;;;6.01;96.17;99949.78;4917669;29;20038;-72
2021/12/14 15:14:04;;;;;;;3.95;3.35;;;;;;;6.20;95.57;99946.72;4916501;29;20028;-70
2021/12/14 15:16:44;;;;;;;1.88;1.77;;;;;;;6.17;95.50;99946.63;4917155;29;20402;-73
2021/12/14 15:19:13;;;;;;;3.67;2.72;;;;;;;6.10;95.67;99949.94;4917356;29;20088;-70
2021/12/14 15:21:55;;;;;;;4.63;2.05;;;;;;;6.41;94.43;99956.50;4917384;29;20112;-69
2021/12/14 15:24:24;;;;;;;3.33;2.47;;;;;;;6.25;94.13;99949.38;4917359;29;20410;-72
2021/12/14 15:27:07;;;;;;;2.05;1.77;;;;;;;6.30;95.05;99958.91;4917076;29;20035;-73
2021/12/14 15:29:37;;;;;;;3.47;3.17;;;;;;;6.43;94.26;99959.97;4917258;29;20032;-69
2021/12/14 15:32:15;;;;;;;3.72;3.28;;;;;;;6.42;94.35;99971.97;4917178;29;20028;-69
2021/12/14 15:34:49;;;;;;;2.80;2.58;;;;;;;6.23;95.34;99977.63;4917411;29;20106;-69
2021/12/14 15:37:39;;;;;;;2.28;2.08;;;;;;;6.21;95.98;99976.75;4916767;29;20103;-70
2021/12/14 15:40:25;;;;;;;7.38;5.57;;;;;;;6.26;95.95;99987.97;4898083;29;20091;-73
2021/12/14 15:42:56;;;;;;;4.60;3.17;;;;;;;6.28;95.63;99990.56;4896816;29;20033;-69
2021/12/14 15:45:58;;;;;;;2.63;2.45;;;;;;;6.36;95.56;99989.03;4898038;29;20491;-69
2021/12/14 15:48:33;;;;;;;6.18;3.45;;;;;;;6.48;94.29;99998.66;4897474;29;20052;-69
2021/12/14 15:50:58;;;;;;;5.60;2.97;;;;;;;6.44;94.33;100001.19;4898049;29;20036;-69
2021/12/14 15:53:35;;;;;;;4.25;1.35;;;;;;;6.31;93.99;99999.22;4898013;29;20017;-69
2021/12/14 15:56:15;;;;;;;3.33;3.05;;;;;;;6.13;95.28;100006.59;4897694;29;20585;-69
2021/12/14 15:58:44;;;;;;;2.05;1.58;;;;;;;6.24;93.97;100014.50;4897967;29;20024;-69
2021/12/14 16:01:17;;;;;;;1.42;1.20;;;;;;;6.31;94.36;100017.25;4897811;29;20033;-69
2021/12/14 16:03:43;;;;;;;2.53;2.42;;;;;;;6.11;94.40;100027.16;4897966;29;20557;-69
2021/12/14 16:06:09;;;;;;;6.55;2.30;;;;;;;6.17;94.12;100023.84;4902186;29;20115;-69
2021/12/14 16:08:38;;;;;;;2.17;1.77;;;;;;;6.18;94.41;100028.13;4916473;29;20119;-69
2021/12/14 16:11:57;;;;;;;2.97;2.63;;;;;;;6.28;94.13;100022.31;4916458;29;20028;-68
2021/12/14 16:16:50;;;;;;;7.22;2.45;;;;;;;6.25;94.04;100026.56;4916337;29;20039;-72
2021/12/14 16:19:21;;;;;;;3.80;3.17;;;;;;;6.16;93.81;100027.25;4916477;29;20470;-73
2021/12/14 16:21:46;;;;;;;1.88;1.77;;;;;;;6.04;94.31;100025.28;4916486;29;20707;-72
2021/12/14 16:24:13;;;;;;;3.42;3.13;;;;;;;6.22;94.54;100019.63;4916172;29;20111;-72
2021/12/14 16:26:38;;;;;;;2.30;2.10;;;;;;;6.06;94.70;100025.34;4916105;29;20515;-73
2021/12/14 16:29:05;;;;;;;3.58;2.30;;;;;;;6.00;95.30;100020.06;4916215;29;20051;-70
2021/12/14 16:31:36;;;;;;;5.07;3.75;;;;;;;5.94;96.31;100018.22;4916308;29;20024;-73
2021/12/14 16:34:10;;;;;;;4.25;2.95;;;;;;;6.06;95.41;100025.34;4916141;29;20103;-73
2021/12/14 16:36:49;;;;;;;4.57;2.95;;;;;;;5.91;96.17;100028.44;4914837;29;20024;-73
2021/12/14 16:39:24;;;;;;;3.80;2.73;;;;;;;6.03;96.10;100031.28;4915946;29;20123;-73